createdAt,value
2023-02-17T00:05:31.941Z,23.4
2023-02-17T00:10:56.653Z,22.9
2023-02-17T00:16:34.289Z,22.6
2023-02-17T00:21:56.422Z,22.6
2023-02-17T00:27:33.878Z,22.9
2023-02-17T00:33:10.651Z,23.1
2023-02-17T00:38:48.401Z,23.1
2023-02-17T00:44:25.098Z,23.5
2023-02-17T00:50:02.472Z,23.6
2023-02-17T00:55:40.929Z,23.3
2023-02-17T01:01:02.120Z,22.8
2023-02-17T01:06:39.052Z,22.6
2023-02-17T01:12:01.735Z,22.8
2023-02-17T01:17:38.947Z,23.3
2023-02-17T01:23:15.262Z,23.8
2023-02-17T01:28:53.082Z,23.4
2023-02-17T01:34:15.693Z,23
2023-02-17T01:39:52.949Z,22.6
2023-02-17T01:45:14.878Z,22.6
2023-02-17T01:50:36.371Z,22.9
2023-02-17T01:56:13.908Z,23.4
2023-02-17T02:01:51.393Z,23.6
2023-02-17T02:07:29.730Z,23.3
2023-02-17T02:13:06.326Z,22.8
2023-02-17T02:18:43.832Z,22.6
2023-02-17T02:24:20.355Z,22.7
2023-02-17T02:29:58.025Z,23.2
2023-02-17T02:35:36.069Z,23.7
2023-02-17T02:41:13.171Z,23.4
2023-02-17T02:46:34.878Z,23
2023-02-17T02:51:41.584Z,22.7
2023-02-17T02:57:03.345Z,22.5
2023-02-17T03:02:40.091Z,22.8
2023-02-17T03:08:17.265Z,23.1
2023-02-17T03:13:53.633Z,23
2023-02-17T03:19:30.760Z,23.3
2023-02-17T03:25:08.349Z,23.7
2023-02-17T03:30:45.586Z,23.4
2023-02-17T03:36:08.079Z,23
2023-02-17T03:41:45.743Z,22.6
2023-02-17T03:47:22.318Z,22.6
2023-02-17T03:52:43.618Z,22.9
2023-02-17T03:58:21.422Z,23.4
2023-02-17T04:03:58.405Z,23.6
2023-02-17T04:09:35.687Z,23.1
2023-02-17T04:15:13.528Z,22.7
2023-02-17T04:20:50.732Z,22.5
2023-02-17T04:26:12.038Z,22.8
2023-02-17T04:31:37.618Z,23.3
2023-02-17T04:37:18.246Z,23.6
2023-02-17T04:42:56.136Z,23.3
2023-02-17T04:48:34.412Z,22.9
2023-02-17T04:54:10.411Z,22.6
2023-02-17T04:59:47.723Z,22.6
2023-02-17T05:05:10.102Z,23.1
2023-02-17T05:10:47.320Z,23.6
2023-02-17T05:16:26.070Z,23.5
2023-02-17T05:22:03.520Z,23.1
2023-02-17T05:27:41.519Z,22.6
2023-02-17T05:33:04.050Z,22.5
2023-02-17T05:38:41.783Z,22.8
2023-02-17T05:44:19.697Z,23.1
2023-02-17T05:49:57.245Z,23
2023-02-17T05:55:34.359Z,23.2
2023-02-17T06:01:12.191Z,23.6
2023-02-17T06:06:49.843Z,23.3
2023-02-17T06:12:12.024Z,22.8
2023-02-17T06:17:51.531Z,22.4
2023-02-17T06:23:28.398Z,22.4
2023-02-17T06:28:52.159Z,22.9
2023-02-17T06:34:29.307Z,23.4
2023-02-17T06:40:06.573Z,23.3
2023-02-17T06:45:44.055Z,22.9
2023-02-17T06:51:21.678Z,22.5
2023-02-17T06:56:58.600Z,22.3
2023-02-17T07:02:37.336Z,22.6
2023-02-17T07:08:13.985Z,23.3
2023-02-17T07:13:37.002Z,23.4
2023-02-17T07:18:59.483Z,23.1
2023-02-17T07:24:37.514Z,22.6
2023-02-17T07:29:59.693Z,22.4
2023-02-17T07:35:37.266Z,22.6
2023-02-17T07:41:01.088Z,23.2
2023-02-17T07:46:39.775Z,23.4
2023-02-17T07:52:17.386Z,23.1
2023-02-17T07:57:54.622Z,22.6
2023-02-17T08:03:32.272Z,22.4
2023-02-17T08:09:09.824Z,22.6
2023-02-17T08:14:48.754Z,23.3
2023-02-17T08:20:25.756Z,23.3
2023-02-17T08:26:03.709Z,22.9
2023-02-17T08:31:41.713Z,23.1
2023-02-17T08:37:19.405Z,23.6
2023-02-17T08:42:40.566Z,23.2
2023-02-17T08:48:18.534Z,22.9
2023-02-17T08:53:58.010Z,23.1
2023-02-17T08:59:32.536Z,23.6
2023-02-17T09:04:54.618Z,23.3
2023-02-17T09:10:17.754Z,22.9
2023-02-17T09:15:57.278Z,23.1
2023-02-17T09:21:47.411Z,23.6
2023-02-17T09:27:19.735Z,23.2
2023-02-17T09:32:43.456Z,22.9
2023-02-17T09:38:05.165Z,23.3
2023-02-17T09:43:44.573Z,23.6
2023-02-17T09:49:31.690Z,23.3
2023-02-17T09:54:53.846Z,23.1
2023-02-17T10:00:19.079Z,23.6
2023-02-17T10:05:59.836Z,23.3
2023-02-17T10:11:21.890Z,23.1
2023-02-17T10:16:45.584Z,23
2023-02-17T10:22:23.695Z,22.9
2023-02-17T10:28:01.889Z,22.9
2023-02-17T10:33:43.209Z,23.1
2023-02-17T10:39:05.489Z,22.9
2023-02-17T10:44:15.749Z,22.8
2023-02-17T10:49:41.182Z,22.6
2023-02-17T10:55:08.727Z,22.6
2023-02-17T11:00:39.881Z,22.8
2023-02-17T11:05:46.671Z,22.9
2023-02-17T11:11:07.804Z,22.7
2023-02-17T11:16:48.472Z,22.6
2023-02-17T11:22:29.223Z,22.5
2023-02-17T11:27:51.449Z,22.4
2023-02-17T11:33:29.950Z,22.8
2023-02-17T11:39:07.890Z,22.8
2023-02-17T11:44:29.291Z,22.6
2023-02-17T11:49:51.150Z,22.4
2023-02-17T11:55:43.782Z,22.4
2023-02-17T12:01:21.147Z,22.3
2023-02-17T12:06:58.966Z,22.8
2023-02-17T12:12:20.875Z,22.6
2023-02-17T12:17:43.401Z,22.4
2023-02-17T12:22:48.873Z,22.4
2023-02-17T12:28:28.277Z,22.3
2023-02-17T12:33:50.992Z,22.2
2023-02-17T12:39:12.564Z,22.6
2023-02-17T12:44:34.785Z,22.7
2023-02-17T12:49:57.878Z,22.4
2023-02-17T12:55:21.216Z,22.3
2023-02-17T13:00:43.681Z,22.3
2023-02-17T13:06:06.390Z,22.2
2023-02-17T13:11:27.598Z,22.7
2023-02-17T13:16:34.240Z,22.6
2023-02-17T13:21:56.211Z,22.4
2023-02-17T13:27:17.919Z,22.3
2023-02-17T13:32:40.148Z,22.3
2023-02-17T13:38:02.900Z,22.2
2023-02-17T13:43:26.326Z,22.3
2023-02-17T13:48:48.779Z,22.9
2023-02-17T13:54:28.273Z,22.6
2023-02-17T13:59:49.501Z,22.4
2023-02-17T14:05:21.477Z,22.5
2023-02-17T14:10:44.150Z,22.9
2023-02-17T14:16:06.155Z,22.7
2023-02-17T14:21:46.180Z,22.5
2023-02-17T14:27:34.093Z,22.3
2023-02-17T14:33:11.558Z,22.2
2023-02-17T14:38:48.783Z,22.1
2023-02-17T14:44:26.509Z,22.1
2023-02-17T14:50:05.177Z,22
2023-02-17T14:55:27.167Z,21.9
2023-02-17T15:01:04.350Z,21.9
2023-02-17T15:06:46.298Z,21.8
2023-02-17T15:12:23.227Z,21.7
2023-02-17T15:18:00.829Z,21.6
2023-02-17T15:23:38.424Z,21.6
2023-02-17T15:29:20.304Z,21.4
2023-02-17T15:35:00.317Z,21.4
2023-02-17T15:40:38.361Z,21.3
2023-02-17T15:46:04.644Z,21.2
2023-02-17T15:57:05.657Z,21
2023-02-17T16:02:44.014Z,20.9
2023-02-17T16:08:22.703Z,20.8
2023-02-17T16:13:59.465Z,20.8
2023-02-17T16:19:36.795Z,20.6
2023-02-17T16:24:59.508Z,20.6
2023-02-17T16:30:37.836Z,20.4
2023-02-17T16:36:01.203Z,20.4
2023-02-17T16:41:25.505Z,20.3
2023-02-17T16:47:04.075Z,20.3
2023-02-17T16:52:43.805Z,20.4
2023-02-17T16:58:22.358Z,20.8
2023-02-17T17:04:01.021Z,21.4
2023-02-17T17:09:38.558Z,21.8
2023-02-17T17:15:21.162Z,21.4
2023-02-17T17:20:58.432Z,21.6
2023-02-17T17:26:35.547Z,21.9
2023-02-17T17:31:58.460Z,21.6
2023-02-17T17:37:20.245Z,21.4
2023-02-17T17:42:45.342Z,21.4
2023-02-17T17:53:29.358Z,21.4
2023-02-17T17:59:06.523Z,22
2023-02-17T18:04:47.341Z,21.8
2023-02-17T18:10:21.826Z,21.6
2023-02-17T18:15:59.247Z,22.1
2023-02-17T18:21:37.190Z,22
2023-02-17T18:27:18.131Z,21.8
2023-02-17T18:32:56.902Z,21.7
2023-02-17T18:38:35.352Z,22.3
2023-02-17T18:44:12.170Z,22.1
2023-02-17T18:49:33.717Z,21.9
2023-02-17T18:54:56.099Z,21.9
2023-02-17T19:00:32.959Z,22.4
2023-02-17T19:06:10.131Z,22.1
2023-02-17T19:11:46.873Z,21.9
2023-02-17T19:17:23.686Z,21.8
2023-02-17T19:23:00.590Z,22.2
2023-02-17T19:28:38.195Z,22.4
2023-02-17T19:34:16.175Z,22.1
2023-02-17T19:39:53.092Z,21.8
2023-02-17T19:45:17.975Z,22.1
2023-02-17T19:50:54.764Z,22.4
2023-02-17T19:56:32.020Z,22.2
2023-02-17T20:01:53.801Z,22
2023-02-17T20:07:31.406Z,21.9
2023-02-17T20:13:08.550Z,21.8
2023-02-17T20:18:49.283Z,21.9
2023-02-17T20:24:27.188Z,22.4
2023-02-17T20:29:48.781Z,22.2
2023-02-17T20:35:27.347Z,22
2023-02-17T20:41:05.300Z,21.9
2023-02-17T20:46:28.181Z,21.8
2023-02-17T20:52:06.331Z,21.8
2023-02-17T20:57:43.939Z,22.4
2023-02-17T21:03:22.276Z,22.2
2023-02-17T21:08:59.572Z,21.9
2023-02-17T21:14:36.781Z,21.7
2023-02-17T21:20:13.788Z,21.8
2023-02-17T21:25:50.940Z,22.3
2023-02-17T21:31:28.884Z,22.4
2023-02-17T21:37:06.266Z,22.9
2023-02-17T21:42:28.375Z,23.3
2023-02-17T21:47:52.019Z,22.9
2023-02-17T21:53:29.128Z,22.4
2023-02-17T21:58:52.160Z,22.1
2023-02-17T22:04:13.159Z,21.9
2023-02-17T22:09:49.474Z,21.9
2023-02-17T22:15:10.298Z,22.3
2023-02-17T22:20:47.124Z,22.9
2023-02-17T22:26:24.443Z,23.3
2023-02-17T22:32:02.537Z,22.9
2023-02-17T22:37:39.318Z,22.6
2023-02-17T22:43:15.760Z,23.1
2023-02-17T22:48:53.224Z,23.5
2023-02-17T22:54:30.857Z,23.2
2023-02-17T22:59:52.423Z,22.7
2023-02-17T23:05:32.352Z,22.4
2023-02-17T23:10:55.187Z,22.1
2023-02-17T23:16:32.871Z,22.1
2023-02-17T23:22:10.205Z,22.4
2023-02-17T23:27:47.762Z,23.1
2023-02-17T23:33:25.236Z,23.5
2023-02-17T23:38:46.542Z,23.2
2023-02-17T23:44:24.750Z,22.7
2023-02-17T23:50:02.798Z,22.4
2023-02-17T23:55:40.309Z,22.4
